ZKE weather

Kashechewan Airport
Kashechewan, Ontario, Canada

Public forecast

Using degrees Celsius for public forecast. Weather courtesy of forecast.io.

METAR (pilot weather report)

Closest report is Attawapiskat Airport, 47.5 nm (88.0 km) NW. Retrieved 2019/05/20 00:00 UTC (38 minutes ago):

CYAT 200000Z AUTO 05009G15KT 9SM FEW048 BKN055 04/01 A3006 RMK SLP181

TAF (pilot weather forecast)

Forecast is more than 6 hours old.

Closest forecast is Attawapiskat Airport, 47.5 nm (88.0 km) NW. Retrieved 2019/05/19 15:00 UTC (10 hours ago):

TAF CYAT 191438Z 1915/1919 VRB03KT P6SM BKN020 TEMPO 1915/1919 BKN025 RMK FCST BASED ON AUTO OBS. NXT FCST WILL BE ISSUED AT 200845Z